CMA CGM Opal — A8RV3 — position and weather

sailwx.info

Track history (hours):
 
Tides and Currents Weather Stations Pressure Air Temp Water Temp Dewpoint Dewpoint Depression Visibility Wind Speed Wind Dir Waves Ship Positions

CMA CGM Opal

Last reported at 2017-Dec-28 01:03 UTC. Time now 2018-Jan-19 13:31 UTC.
Position S 05°47' E 010°59'.
Warning: this ship's position is 22 days out of date.

Length 258 m; draft 10.2 m.

Type: Ship (hazmat cat C). MMSI: 636014168.

Date/timePositionNaut miles runAvg speedWind from/ knotsBaromVisibWave heightAir tempDewpointWater temp
2017-Dec-28 01:03S 05°47' E 010°59'115.7
2017-Dec-28 00:59S 05°46' E 010°60'815.8
2017-Dec-28 00:29S 05°38' E 011°02'815.6
2017-Dec-28 00:00S 05°31' E 011°05'815.8
2017-Dec-27 23:30S 05°24' E 011°08'816.0
2017-Dec-27 23:00S 05°17' E 011°11'815.8
2017-Dec-27 22:30S 05°10' E 011°15'816.0
2017-Dec-27 22:00S 05°05' E 011°21'816.0
2017-Dec-27 21:30S 04°60' E 011°27'23 0.8
2017-Dec-26 17:26S 04°45' E 011°45'0 0.0
2017-Dec-26 16:59S 04°45' E 011°45'0 0.0
2017-Dec-26 16:23S 04°45' E 011°45'0 0.0
2017-Dec-26 15:34S 04°45' E 011°45'  
2017-Dec-23 22:56S 04°52' E 011°38'817.8
2017-Dec-23 22:30S 04°56' E 011°31'917.6
2017-Dec-23 22:00S 04°57' E 011°22'917.4
2017-Dec-23 21:30S 04°53' E 011°15'86616.7
2017-Dec-21 17:42N 05°36' E 001°20'1718.1
2017-Dec-21 16:47N 05°53' E 001°19'518.1
2017-Dec-21 16:30N 05°58' E 001°19'917.8
2017-Dec-21 15:59N 06°07' E 001°19'3 0.3
2017-Dec-21 07:13N 06°09' E 001°17'0 0.0
2017-Dec-21 06:43N 06°09' E 001°17'0 0.0
2017-Dec-21 06:04N 06°09' E 001°17'0 0.0
2017-Dec-21 04:31N 06°09' E 001°17'0 0.0
2017-Dec-21 04:25N 06°09' E 001°17'0 0.0
2017-Dec-21 03:49N 06°09' E 001°17'0 0.0
2017-Dec-21 03:19N 06°09' E 001°17'0 0.0
2017-Dec-21 02:58N 06°09' E 001°17'0 0.0
2017-Dec-21 02:25N 06°09' E 001°17'0 0.0
2017-Dec-21 01:55N 06°09' E 001°17'0 0.0
2017-Dec-20 23:13N 06°09' E 001°17'0 0.0
2017-Dec-20 22:55N 06°09' E 001°17'0 0.0
2017-Dec-20 22:22N 06°09' E 001°17'0 0.0
2017-Dec-20 21:59N 06°09' E 001°17'1 1.9
2017-Dec-20 21:30N 06°08' E 001°18'3 5.9
2017-Dec-20 20:59N 06°05' E 001°19'4 0.8
2017-Dec-20 16:18N 06°02' E 001°18'0 0.1
2017-Dec-20 16:00N 06°02' E 001°18'0 0.0
2017-Dec-20 15:30N 06°02' E 001°18'0 0.3
2017-Dec-20 14:45N 06°02' E 001°18'3 6.6
2017-Dec-20 14:20N 05°59' E 001°18'4 9.1
2017-Dec-20 13:54N 05°55' E 001°18'714.5
2017-Dec-20 13:26N 05°48' E 001°18'5116.8
2017-Dec-20 10:24N 05°26' E 000°32'920.2
2017-Dec-20 09:58N 05°23' E 000°24'920.0
2017-Dec-20 09:30N 05°20' E 000°16'1020.1
2017-Dec-20 09:00N 05°16' E 000°06'1020.3
2017-Dec-20 08:30N 05°13' W 000°04'1020.1
2017-Dec-20 08:00N 05°10' W 000°13'1020.0
2017-Dec-20 07:29N 05°06' W 000°23'1319.8
2017-Dec-20 06:49N 05°01' W 000°36'1819.6
2017-Dec-20 05:53N 04°56' W 000°53'719.3
2017-Dec-20 05:30N 04°53' W 000°60'1019.1
2017-Dec-20 04:59N 04°49' W 001°09'  
Track history (hours):
 
Tides and Currents Weather Stations Pressure Air Temp Water Temp Dewpoint Dewpoint Depression Visibility Wind Speed Wind Dir Waves Ship Positions

CMA CGM Opal

Last reported at 2017-Dec-28 01:03 UTC. Time now 2018-Jan-19 13:31 UTC.
Position S 05°47' E 010°59'.
Warning: this ship's position is 22 days out of date.

Length 258 m; draft 10.2 m.

Type: Ship (hazmat cat C). MMSI: 636014168.

Date/timePositionNaut miles runAvg speedWind from/ knotsBaromVisibWave heightAir tempDewpointWater temp
2017-Dec-28 01:03S 05°47' E 010°59'115.7
2017-Dec-28 00:59S 05°46' E 010°60'815.8
2017-Dec-28 00:29S 05°38' E 011°02'815.6
2017-Dec-28 00:00S 05°31' E 011°05'815.8
2017-Dec-27 23:30S 05°24' E 011°08'816.0
2017-Dec-27 23:00S 05°17' E 011°11'815.8
2017-Dec-27 22:30S 05°10' E 011°15'816.0
2017-Dec-27 22:00S 05°05' E 011°21'816.0
2017-Dec-27 21:30S 04°60' E 011°27'23 0.8
2017-Dec-26 17:26S 04°45' E 011°45'0 0.0
2017-Dec-26 16:59S 04°45' E 011°45'0 0.0
2017-Dec-26 16:23S 04°45' E 011°45'0 0.0
2017-Dec-26 15:34S 04°45' E 011°45'  
2017-Dec-23 22:56S 04°52' E 011°38'817.8
2017-Dec-23 22:30S 04°56' E 011°31'917.6
2017-Dec-23 22:00S 04°57' E 011°22'917.4
2017-Dec-23 21:30S 04°53' E 011°15'86616.7
2017-Dec-21 17:42N 05°36' E 001°20'1718.1
2017-Dec-21 16:47N 05°53' E 001°19'518.1
2017-Dec-21 16:30N 05°58' E 001°19'917.8
2017-Dec-21 15:59N 06°07' E 001°19'3 0.3
2017-Dec-21 07:13N 06°09' E 001°17'0 0.0
2017-Dec-21 06:43N 06°09' E 001°17'0 0.0
2017-Dec-21 06:04N 06°09' E 001°17'0 0.0
2017-Dec-21 04:31N 06°09' E 001°17'0 0.0
2017-Dec-21 04:25N 06°09' E 001°17'0 0.0
2017-Dec-21 03:49N 06°09' E 001°17'0 0.0
2017-Dec-21 03:19N 06°09' E 001°17'0 0.0
2017-Dec-21 02:58N 06°09' E 001°17'0 0.0
2017-Dec-21 02:25N 06°09' E 001°17'0 0.0
2017-Dec-21 01:55N 06°09' E 001°17'0 0.0
2017-Dec-20 23:13N 06°09' E 001°17'0 0.0
2017-Dec-20 22:55N 06°09' E 001°17'0 0.0
2017-Dec-20 22:22N 06°09' E 001°17'0 0.0
2017-Dec-20 21:59N 06°09' E 001°17'1 1.9
2017-Dec-20 21:30N 06°08' E 001°18'3 5.9
2017-Dec-20 20:59N 06°05' E 001°19'4 0.8
2017-Dec-20 16:18N 06°02' E 001°18'0 0.1
2017-Dec-20 16:00N 06°02' E 001°18'0 0.0
2017-Dec-20 15:30N 06°02' E 001°18'0 0.3
2017-Dec-20 14:45N 06°02' E 001°18'3 6.6
2017-Dec-20 14:20N 05°59' E 001°18'4 9.1
2017-Dec-20 13:54N 05°55' E 001°18'714.5
2017-Dec-20 13:26N 05°48' E 001°18'5116.8
2017-Dec-20 10:24N 05°26' E 000°32'920.2
2017-Dec-20 09:58N 05°23' E 000°24'920.0
2017-Dec-20 09:30N 05°20' E 000°16'1020.1
2017-Dec-20 09:00N 05°16' E 000°06'1020.3
2017-Dec-20 08:30N 05°13' W 000°04'1020.1
2017-Dec-20 08:00N 05°10' W 000°13'1020.0
2017-Dec-20 07:29N 05°06' W 000°23'1319.8
2017-Dec-20 06:49N 05°01' W 000°36'1819.6
2017-Dec-20 05:53N 04°56' W 000°53'719.3
2017-Dec-20 05:30N 04°53' W 000°60'1019.1
2017-Dec-20 04:59N 04°49' W 001°09'  

Dump ship's entire track history